Data for 08/03/2015

Time Sea-Level Adjusted Pressure Absolute Pressure Temperature Relative Humidity Dew Point   
(mb) (inHg) (mb) (inHg) (C) (F) (%) (C) (F)
00:05 1018 30.06 848 25.04 21.4 70.5 32 4.1 39.4
00:10 1018 30.06 848 25.04 21.3 70.3 31 3.8 38.9
00:15 1018 30.06 848 25.04 21.3 70.3 32 3.9 39
00:20 1018 30.06 848 25.04 21.2 70.1 32 3.8 38.9
00:25 1018 30.06 848 25.04 21 69.8 32 3.7 38.6
00:30 1018 30.06 847 25.01 21 69.9 31 3.6 38.5
00:35 1018 30.06 847 25.01 21.1 69.9 31 3.6 38.6
00:40 1018 30.06 848 25.04 20.9 69.7 32 3.7 38.7
00:45 1018 30.06 847 25.01 20.9 69.6 31 3.5 38.4
00:50 1018 30.06 847 25.01 20.9 69.6 31 3.5 38.3
00:55 1018 30.06 847 25.01 20.8 69.5 32 3.6 38.5
01:00 1018 30.06 847 25.01 20.7 69.2 32 3.6 38.4
01:05 1018 30.06 847 25.01 20.6 69.1 32 3.4 38.2
01:10 1018 30.06 847 25.01 20.6 69.1 32 3.5 38.3
01:15 1018 30.06 847 25.01 20.6 69 32 3.5 38.2
01:20 1018 30.06 847 25.01 20.5 68.9 32 3.4 38.2
01:25 1018 30.06 847 25.01 20.4 68.8 32 3.4 38.1
01:30 1018 30.06 847 25.01 20.4 68.6 33 3.5 38.4
01:35 1018 30.06 847 25.01 20.2 68.3 33 3.4 38.1
01:40 1018 30.06 847 25.01 20.1 68.2 33 3.4 38
01:45 1018 30.06 847 25.01 20.1 68.1 33 3.5 38.3
01:50 1018 30.06 847 25.01 19.9 67.9 33 3.4 38.1
01:55 1018 30.06 847 25.01 19.9 67.9 33 3.2 37.8
02:00 1018 30.06 847 25.01 19.9 67.9 33 3.2 37.7
02:05 1018 30.06 847 25.01 19.9 67.8 33 3.3 37.9
02:10 1018 30.06 847 25.01 19.8 67.6 33 3.2 37.8
02:15 1018 30.06 847 25.01 19.8 67.7 33 3.1 37.6
02:20 1018 30.06 847 25.01 19.8 67.7 33 3.1 37.6
02:25 1018 30.06 847 25.01 19.8 67.7 33 3.1 37.5
02:30 1018 30.06 847 25.01 19.7 67.5 33 3.2 37.8
02:35 1018 30.06 847 25.01 19.6 67.3 33 3 37.5
02:40 1018 30.06 847 25.01 19.6 67.3 33 2.9 37.3
02:45 1018 30.06 847 25.01 19.7 67.4 33 3 37.4
02:50 1018 30.06 847 25.01 19.6 67.4 33 3.1 37.5
02:55 1018 30.06 847 25.01 19.6 67.2 33 3.1 37.5
03:00 1018 30.06 847 25.01 19.5 67 33 3 37.4
03:05 1018 30.06 847 25.01 19.5 67 33 3 37.3
03:10 1018 30.06 847 25.01 19.4 66.8 34 3.1 37.5
03:15 1018 30.06 847 25.01 19.2 66.6 34 3.1 37.5
03:20 1018 30.06 847 25.01 19.2 66.5 34 3 37.5
03:25 1018 30.06 847 25.01 19 66.3 34 3.1 37.6
03:30 1018 30.06 847 25.01 19 66.2 34 2.9 37.2
03:35 1018 30.06 847 25.01 19.1 66.3 34 3 37.5
03:40 1018 30.06 847 25.01 19 66.2 34 3 37.3
03:45 1018 30.06 847 25.01 19.1 66.4 34 3.1 37.6
03:50 1018 30.06 847 25.01 19.1 66.3 34 3 37.4
03:55 1018 30.06 847 25.01 19.2 66.6 34 3 37.4
04:00 1018 30.06 847 25.01 19.3 66.8 33 2.9 37.3
04:05 1018 30.06 847 25.01 19.5 67.1 33 3.1 37.6
04:10 1018 30.06 847 25.01 19.3 66.7 34 3.1 37.6
04:15 1018 30.06 847 25.01 19.2 66.5 34 3.1 37.5
04:20 1018 30.06 847 25.01 19.2 66.5 34 3.2 37.7
04:25 1018 30.06 847 25.01 19.1 66.4 34 3 37.4
04:30 1018 30.06 847 25.01 19.2 66.6 34 3 37.4
04:35 1018 30.06 847 25.01 19.3 66.7 34 3 37.5
04:40 1018 30.06 847 25.01 19.3 66.7 34 3.1 37.7
04:45 1018 30.06 847 25.01 19.3 66.7 34 3 37.4
04:50 1018 30.06 847 25.01 19.4 67 33 3 37.5
04:55 1018 30.06 847 25.01 19.4 67 34 3.1 37.6
05:00 1018 30.06 847 25.01 19.3 66.7 34 3.1 37.7
05:05 1018 30.06 847 25.01 19.1 66.4 35 3.3 37.9
05:10 1018 30.06 848 25.04 18.9 66.1 35 3.2 37.8
05:15 1018 30.06 848 25.04 19 66.1 35 3.2 37.8
05:20 1018 30.06 848 25.04 18.9 65.9 35 3.3 37.9
05:25 1018 30.06 848 25.04 18.8 65.8 35 3.2 37.8
05:30 1018 30.06 848 25.04 18.8 65.8 36 3.3 38
05:35 1019 30.09 848 25.04 18.7 65.7 36 3.3 37.9
05:40 1019 30.09 848 25.04 18.8 65.8 35 3.3 38
05:45 1019 30.09 848 25.04 18.8 65.9 35 3.3 37.9
05:50 1019 30.09 848 25.04 18.8 65.8 35 3.3 38
05:55 1019 30.09 848 25.04 18.8 65.8 35 3.3 38
06:00 1019 30.09 848 25.04 18.8 65.8 36 3.5 38.2
06:05 1019 30.09 848 25.04 18.7 65.6 36 3.6 38.5
06:10 1019 30.09 848 25.04 18.7 65.6 37 3.6 38.5
06:15 1019 30.09 848 25.04 18.7 65.6 36 3.5 38.3
06:20 1019 30.09 848 25.04 18.7 65.6 37 3.9 39.1
06:25 1018 30.06 848 25.04 18.6 65.5 37 3.8 38.8
06:30 1018 30.06 848 25.04 18.6 65.5 36 3.6 38.4
06:35 1018 30.06 848 25.04 18.7 65.6 37 3.7 38.6
06:40 1018 30.06 848 25.04 18.7 65.7 37 3.8 38.9
06:45 1018 30.06 848 25.04 18.7 65.7 37 3.9 39
06:50 1018 30.06 848 25.04 18.7 65.7 37 3.8 38.9
06:55 1018 30.06 848 25.04 18.8 65.9 37 4 39.2
07:00 1018 30.06 848 25.04 18.9 66 37 4.1 39.4
07:05 1018 30.06 848 25.04 19.1 66.3 37 4.3 39.7
07:10 1018 30.06 848 25.04 19.2 66.5 37 4.2 39.5
07:15 1018 30.06 848 25.04 19.4 66.9 36 4.1 39.5
07:20 1018 30.06 848 25.04 19.4 67 36 4.2 39.6
07:25 1018 30.06 848 25.04 19.6 67.2 36 4.2 39.6
07:30 1018 30.06 847 25.01 19.6 67.4 35 4.1 39.3
07:35 1018 30.06 847 25.01 19.7 67.5 36 4.3 39.7
07:40 1018 30.06 847 25.01 20 67.9 36 4.5 40
07:45 1018 30.06 847 25.01 20.3 68.5 35 4.4 39.9
07:50 1018 30.06 847 25.01 20.4 68.8 35 4.8 40.7
07:55 1018 30.06 847 25.01 20.6 69.1 36 5 41
08:00 1018 30.06 847 25.01 20.7 69.2 35 5 41.1
08:05 1018 30.06 847 25.01 20.9 69.5 36 5.2 41.4
08:10 1018 30.06 847 25.01 21 69.9 37 6 42.7
08:15 1018 30.06 847 25.01 20.8 69.5 38 6.3 43.4
08:20 1018 30.06 847 25.01 20.9 69.7 37 5.8 42.5
08:25 1018 30.06 847 25.01 20.6 69.2 38 6 42.9
08:30 1018 30.06 847 25.01 20.4 68.8 39 6.2 43.2
08:35 1018 30.06 847 25.01 20.6 69.1 38 6.2 43.1
08:40 1018 30.06 847 25.01 20.8 69.4 37 5.7 42.2
08:45 1018 30.06 847 25.01 21.2 70.1 36 5.5 41.9
08:50 1018 30.06 847 25.01 21.1 70 37 6.1 43.1
08:55 1018 30.06 847 25.01 21.2 70.1 35 5.3 41.5
09:00 1018 30.06 847 25.01 21.4 70.5 35 5.7 42.2
09:05 1018 30.06 847 25.01 22 71.6 34 5.6 42.2
09:10 1018 30.06 847 25.01 21.9 71.5 35 5.9 42.6
09:15 1018 30.06 847 25.01 22.5 72.6 31 4.6 40.2
09:20 1018 30.06 847 25.01 22.6 72.7 31 4.6 40.3
09:25 1018 30.06 847 25.01 22.6 72.6 30 4.2 39.6
09:30 1018 30.06 847 25.01 22.8 73.1 30 4.5 40
09:35 1018 30.06 847 25.01 23.3 74 29 4.3 39.7
09:40 1018 30.06 847 25.01 23.3 73.9 31 5.3 41.5
09:45 1018 30.06 847 25.01 23.7 74.6 29 4.8 40.6
09:50 1018 30.06 847 25.01 24 75.3 28 4.6 40.3
09:55 1018 30.06 847 25.01 24.1 75.4 29 5 40.9
10:00 1018 30.06 847 25.01 24.4 75.9 27 4.6 40.3
10:05 1018 30.06 847 25.01 24.4 76 28 4.9 40.9
10:10 1018 30.06 847 25.01 24.3 75.8 28 5 40.9
10:15 1018 30.06 847 25.01 24.4 76 29 5.6 42.2
10:20 1018 30.06 847 25.01 24.3 75.7 30 5.8 42.4
10:25 1018 30.06 847 25.01 24.1 75.4 31 6.4 43.5
10:30 1018 30.06 847 25.01 24.1 75.4 31 6.1 42.9
10:35 1018 30.06 847 25.01 24.2 75.5 31 6.1 43
10:40 1018 30.06 847 25.01 24.1 75.4 31 6.2 43.2
10:45 1018 30.06 847 25.01 24.8 76.6 30 6.3 43.3
10:50 1018 30.06 847 25.01 24.8 76.7 29 5.8 42.4
10:55 1017 30.03 847 25.01 24.8 76.6 30 6.3 43.3
11:00 1017 30.03 847 25.01 25.2 77.3 29 6.4 43.5
11:05 1017 30.03 847 25.01 25.5 77.9 29 6.6 43.8
11:10 1017 30.03 846 24.98 26.1 78.9 27 5.7 42.2
11:15 1017 30.03 846 24.98 26.3 79.4 26 5.7 42.2
11:20 1017 30.03 846 24.98 26.4 79.5 26 5.6 42
11:25 1017 30.03 846 24.98 26.4 79.5 27 5.9 42.7
11:30 1017 30.03 846 24.98 26.4 79.6 25 5.3 41.5
11:35 1017 30.03 846 24.98 26.4 79.5 26 5.6 42.1
11:40 1017 30.03 846 24.98 26.6 79.8 25 5.2 41.4
11:45 1017 30.03 846 24.98 26.8 80.2 24 4.9 40.9
11:50 1017 30.03 846 24.98 26.9 80.4 25 5.2 41.4
11:55 1017 30.03 846 24.98 26.5 79.8 24 4.8 40.6
12:00 1017 30.03 846 24.98 26.4 79.6 25 4.9 40.8
12:05 1017 30.03 846 24.98 26.6 79.8 25 4.9 40.9
12:10 1017 30.03 846 24.98 26.8 80.2 24 4.8 40.7
12:15 1017 30.03 846 24.98 26.9 80.3 24 4.9 40.8
12:20 1017 30.03 846 24.98 27.1 80.9 24 4.9 40.9
12:25 1017 30.03 846 24.98 27.2 80.9 24 4.9 40.8
12:30 1017 30.03 846 24.98 26.9 80.3 25 5.6 42.1
12:35 1017 30.03 846 24.98 27 80.6 26 6.1 43.1
12:40 1017 30.03 846 24.98 26.8 80.2 25 5.7 42.2
12:45 1017 30.03 846 24.98 26.5 79.6 25 5.1 41.1
12:50 1017 30.03 846 24.98 26.6 79.9 25 5.4 41.8
12:55 1017 30.03 846 24.98 26.6 79.9 25 5.4 41.7
13:00 1017 30.03 846 24.98 26.9 80.4 25 5.5 41.9
13:05 1017 30.03 846 24.98 27 80.7 25 5.4 41.6
13:10 1017 30.03 846 24.98 27.4 81.3 25 5.9 42.6
13:15 1017 30.03 846 24.98 27.7 81.8 25 6.1 42.9
13:20 1017 30.03 846 24.98 27.9 82.2 24 5.6 42.1
13:25 1017 30.03 846 24.98 27.8 82 25 6 42.7
13:30 1016 30 846 24.98 27.7 81.9 24 5.4 41.7
13:35 1016 30 846 24.98 27.7 81.9 24 5.6 42
13:40 1016 30 846 24.98 27.6 81.7 25 6 42.7
13:45 1016 30 846 24.98 27.9 82.2 25 6.5 43.8
13:50 1016 30 846 24.98 27.8 82 25 6.5 43.6
13:55 1016 30 846 24.98 27.4 81.3 25 6.2 43.1
14:00 1016 30 846 24.98 27.4 81.4 26 6.5 43.7
14:05 1016 30 845 24.95 27.6 81.7 26 6.7 44
14:10 1016 30 845 24.95 27.6 81.6 26 6.4 43.5
14:15 1016 30 845 24.95 27.8 82 25 6.5 43.6
14:20 1016 30 845 24.95 27.8 82.1 25 6.6 43.8
14:25 1016 30 845 24.95 28.1 82.6 25 6.4 43.6
14:30 1016 30 845 24.95 27.7 81.9 26 7 44.5
14:35 1016 30 845 24.95 28.1 82.5 25 6.4 43.5
14:40 1016 30 845 24.95 27.9 82.1 25 6.5 43.6
14:45 1016 30 845 24.95 27.7 81.9 26 6.6 43.9
14:50 1016 30 845 24.95 27.4 81.2 26 6.6 43.8
14:55 1016 30 845 24.95 27.4 81.4 27 6.9 44.4
15:00 1016 30 845 24.95 27.4 81.3 27 7.1 44.9
15:05 1016 30 845 24.95 27.4 81.4 27 6.8 44.3
15:10 1016 30 845 24.95 27.3 81.1 26 6.6 43.8
15:15 1016 30 845 24.95 27.2 81 25 6 42.8
15:20 1016 30 845 24.95 27.3 81.1 26 6.4 43.5
15:25 1016 30 845 24.95 27.3 81.2 25 6 42.7
15:30 1016 30 845 24.95 27.4 81.2 25 6.1 43
15:35 1016 30 845 24.95 27.4 81.3 26 6.3 43.3
15:40 1016 30 845 24.95 27.5 81.6 25 5.9 42.6
15:45 1016 30 845 24.95 27.5 81.6 25 5.8 42.4
15:50 1016 30 845 24.95 27.6 81.8 24 5.8 42.5
15:55 1016 30 845 24.95 27.7 81.9 25 6 42.7
16:00 1015 29.97 845 24.95 27.7 81.9 25 6 42.7
16:05 1015 29.97 845 24.95 27.8 82.1 25 6.1 43
16:10 1015 29.97 845 24.95 27.9 82.1 25 6.5 43.7
16:15 1015 29.97 845 24.95 27.9 82.2 25 6.3 43.4
16:20 1015 29.97 845 24.95 28 82.4 25 6.7 44.1
16:25 1015 29.97 845 24.95 27.8 82 24 5.8 42.5
16:30 1015 29.97 845 24.95 27.6 81.8 24 5.7 42.2
16:35 1015 29.97 845 24.95 27.5 81.5 25 5.8 42.4
16:40 1015 29.97 845 24.95 27.4 81.4 25 5.9 42.6
16:45 1015 29.97 845 24.95 27.4 81.3 25 5.7 42.3
16:50 1015 29.97 845 24.95 27.3 81.2 25 5.7 42.3
16:55 1015 29.97 845 24.95 27.3 81.1 25 5.7 42.3
17:00 1015 29.97 845 24.95 27.2 81 25 5.5 42
17:05 1015 29.97 844 24.92 27.2 80.9 24 5.4 41.7
17:10 1015 29.97 844 24.92 27.1 80.8 25 5.4 41.7
17:15 1015 29.97 844 24.92 27.1 80.7 24 5 41
17:20 1015 29.97 844 24.92 27.1 80.7 25 5.5 41.9
17:25 1015 29.97 844 24.92 27.1 80.8 25 5.7 42.3
17:30 1015 29.97 844 24.92 27 80.5 25 5.4 41.7
17:35 1015 29.97 844 24.92 26.9 80.5 24 4.9 40.8
17:40 1015 29.97 844 24.92 26.8 80.3 24 5 41
17:45 1015 29.97 844 24.92 26.7 80.1 25 5.2 41.4
17:50 1015 29.97 844 24.92 26.6 79.9 25 5 41
17:55 1015 29.97 844 24.92 26.5 79.8 25 5.1 41.1
18:00 1015 29.97 844 24.92 26.4 79.5 25 5.1 41.2
18:05 1015 29.97 844 24.92 26.3 79.3 25 5.1 41.2
18:10 1015 29.97 845 24.95 26.2 79.1 26 5.3 41.6
18:15 1015 29.97 845 24.95 26 78.8 26 5.5 41.8
18:20 1015 29.97 845 24.95 26 78.8 26 5.3 41.6
18:25 1016 30 845 24.95 26 78.8 26 5.4 41.7
18:30 1016 30 845 24.95 26 78.8 27 5.6 42
18:35 1016 30 845 24.95 25.9 78.7 27 5.6 42.2
18:40 1016 30 845 24.95 25.9 78.7 27 6 42.8
18:45 1016 30 845 24.95 26 78.7 26 5.5 41.8
18:50 1016 30 845 24.95 26 78.7 25 4.9 40.9
18:55 1016 30 845 24.95 25.8 78.4 24 4.1 39.4
19:00 1016 30 845 24.95 25.6 78 24 4 39.1
19:05 1016 30 845 24.95 25.5 77.8 25 4 39.2
19:10 1016 30 845 24.95 25.3 77.6 24 3.6 38.5
19:15 1016 30 845 24.95 25.3 77.6 24 3.6 38.4
19:20 1016 30 845 24.95 25.3 77.5 24 3.6 38.6
19:25 1016 30 845 24.95 25.3 77.5 24 3.5 38.3
19:30 1016 30 845 24.95 25.2 77.4 25 3.9 39.1
19:35 1016 30 845 24.95 25.1 77.1 26 4.4 39.9
19:40 1016 30 845 24.95 24.9 76.9 26 4.6 40.2
19:45 1016 30 845 24.95 24.6 76.3 27 4.5 40
19:50 1016 30 845 24.95 24.3 75.8 28 4.7 40.5
19:55 1016 30 845 24.95 24 75.2 28 4.6 40.3
20:00 1016 30 845 24.95 23.8 74.8 28 4.2 39.5
20:05 1016 30 845 24.95 24 75.3 27 3.9 39
20:10 1016 30 845 24.95 24.2 75.5 27 4.2 39.5
20:15 1016 30 845 24.95 24.2 75.5 27 4.1 39.4
20:20 1016 30 845 24.95 24.2 75.5 27 4 39.2
20:25 1016 30 845 24.95 24.2 75.6 27 4.1 39.5
20:30 1016 30 845 24.95 24.2 75.6 27 4.1 39.4
20:35 1016 30 846 24.98 24 75.1 29 4.9 40.8
20:40 1016 30 846 24.98 23.4 74.2 29 4.5 40
20:45 1016 30 846 24.98 23.6 74.5 28 4 39.3
20:50 1017 30.03 846 24.98 23.8 74.8 28 4.4 39.9
20:55 1016 30 846 24.98 23.6 74.5 28 4.4 39.9
21:00 1016 30 846 24.98 23.6 74.4 28 4.1 39.3
21:05 1016 30 846 24.98 23.7 74.6 27 3.8 38.9
21:10 1016 30 846 24.98 23.7 74.6 30 5.2 41.3
21:15 1016 30 845 24.95 23.3 73.9 30 5 41.1
21:20 1016 30 845 24.95 23 73.5 31 5.4 41.7
21:25 1016 30 845 24.95 22.9 73.2 32 5.6 42
21:30 1016 30 845 24.95 22.9 73.2 33 5.8 42.4
21:35 1016 30 845 24.95 23 73.5 31 5.4 41.7
21:40 1016 30 845 24.95 23.2 73.7 31 5.2 41.4
21:45 1016 30 845 24.95 23.4 74.2 29 4.4 40
21:50 1016 30 845 24.95 24.4 76 27 4.3 39.7
21:55 1016 30 845 24.95 24.6 76.3 23 2.6 36.6
22:00 1016 30 845 24.95 25.1 77.2 27 5.1 41.2
22:05 1016 30 845 24.95 24.6 76.3 31 6.5 43.7
22:10 1016 30 845 24.95 23.9 75 32 6.4 43.4
22:15 1016 30 845 24.95 22 71.7 39 7.7 45.9
22:20 1016 30 846 24.98 21.5 70.6 40 7.6 45.7
22:25 1017 30.03 846 24.98 21.2 70.1 43 8.2 46.8
22:30 1017 30.03 846 24.98 20.7 69.3 47 9.1 48.4
22:35 1017 30.03 846 24.98 20.3 68.5 45 8.3 46.9
22:40 1017 30.03 846 24.98 20.6 69 41 7 44.6
22:45 1017 30.03 846 24.98 21.4 70.4 39 6.9 44.4
22:50 1017 30.03 846 24.98 21.5 70.8 37 6.6 43.8
22:55 1017 30.03 847 25.01 21.5 70.6 39 7.2 44.9
23:00 1017 30.03 847 25.01 21.2 70.2 41 7.5 45.6
23:05 1018 30.06 847 25.01 21 69.8 43 8 46.3
23:10 1018 30.06 847 25.01 20.9 69.7 43 8.1 46.6
23:15 1018 30.06 847 25.01 20.9 69.6 44 8.2 46.8
23:20 1018 30.06 847 25.01 20.9 69.7 44 8.3 46.9
23:25 1018 30.06 847 25.01 20.9 69.6 44 8.4 47.2
23:30 1018 30.06 847 25.01 20.9 69.6 45 8.6 47.5
23:35 1018 30.06 847 25.01 20.9 69.5 44 8.5 47.2
23:40 1018 30.06 847 25.01 20.8 69.5 45 8.6 47.5
23:45 1018 30.06 847 25.01 20.7 69.2 45 8.5 47.4
23:50 1018 30.06 847 25.01 20.6 69.1 45 8.5 47.3
23:55 1018 30.06 847 25.01 20.7 69.3 45 8.4 47.2
24:00 1018 30.06 847 25.01 20.6 69.1 47 9 48.2